sensor_id;sensor_type;location;lat;lon;timestamp;temperature;humidity
72814;DHT22;60945;48.516;-2.768;2023-08-12T00:00:20;17.80;87.30
72814;DHT22;60945;48.516;-2.768;2023-08-12T00:02:46;17.70;87.60
72814;DHT22;60945;48.516;-2.768;2023-08-12T00:05:12;17.80;87.80
72814;DHT22;60945;48.516;-2.768;2023-08-12T00:07:39;17.70;88.20
72814;DHT22;60945;48.516;-2.768;2023-08-12T00:10:10;17.60;88.90
72814;DHT22;60945;48.516;-2.768;2023-08-12T00:12:36;17.50;88.90
72814;DHT22;60945;48.516;-2.768;2023-08-12T00:15:03;17.50;89.10
72814;DHT22;60945;48.516;-2.768;2023-08-12T00:17:31;17.40;89.20
72814;DHT22;60945;48.516;-2.768;2023-08-12T00:19:57;17.40;89.20
72814;DHT22;60945;48.516;-2.768;2023-08-12T00:22:22;17.40;89.60
72814;DHT22;60945;48.516;-2.768;2023-08-12T00:24:48;17.30;89.60
72814;DHT22;60945;48.516;-2.768;2023-08-12T00:27:14;17.20;89.60
72814;DHT22;60945;48.516;-2.768;2023-08-12T00:29:40;17.20;89.90
72814;DHT22;60945;48.516;-2.768;2023-08-12T00:32:05;17.10;90.30
72814;DHT22;60945;48.516;-2.768;2023-08-12T00:34:31;17.10;90.40
72814;DHT22;60945;48.516;-2.768;2023-08-12T00:36:57;17.10;90.50
72814;DHT22;60945;48.516;-2.768;2023-08-12T00:39:23;17.10;90.30
72814;DHT22;60945;48.516;-2.768;2023-08-12T00:41:51;17.10;90.10
72814;DHT22;60945;48.516;-2.768;2023-08-12T00:44:17;17.10;90.10
72814;DHT22;60945;48.516;-2.768;2023-08-12T00:46:43;17.10;90.10
72814;DHT22;60945;48.516;-2.768;2023-08-12T00:49:10;17.00;90.10
72814;DHT22;60945;48.516;-2.768;2023-08-12T00:51:38;17.00;90.40
72814;DHT22;60945;48.516;-2.768;2023-08-12T00:54:05;16.90;90.40
72814;DHT22;60945;48.516;-2.768;2023-08-12T00:56:33;16.90;90.40
72814;DHT22;60945;48.516;-2.768;2023-08-12T00:59:00;16.80;90.40
72814;DHT22;60945;48.516;-2.768;2023-08-12T01:01:27;16.90;90.60
72814;DHT22;60945;48.516;-2.768;2023-08-12T01:03:53;16.80;90.50
72814;DHT22;60945;48.516;-2.768;2023-08-12T01:06:18;16.90;90.30
72814;DHT22;60945;48.516;-2.768;2023-08-12T01:08:44;16.90;90.00
72814;DHT22;60945;48.516;-2.768;2023-08-12T01:11:29;16.90;89.50
72814;DHT22;60945;48.516;-2.768;2023-08-12T01:14:00;16.90;89.40
72814;DHT22;60945;48.516;-2.768;2023-08-12T01:16:33;16.90;89.50
72814;DHT22;60945;48.516;-2.768;2023-08-12T01:19:03;16.80;89.60
72814;DHT22;60945;48.516;-2.768;2023-08-12T01:21:31;16.80;89.80
72814;DHT22;60945;48.516;-2.768;2023-08-12T01:23:59;16.90;89.80
72814;DHT22;60945;48.516;-2.768;2023-08-12T01:26:25;16.90;89.70
72814;DHT22;60945;48.516;-2.768;2023-08-12T01:28:51;16.90;89.60
72814;DHT22;60945;48.516;-2.768;2023-08-12T01:34:40;16.90;89.70
72814;DHT22;60945;48.516;-2.768;2023-08-12T01:37:09;16.90;89.80
72814;DHT22;60945;48.516;-2.768;2023-08-12T01:39:36;16.90;89.70
72814;DHT22;60945;48.516;-2.768;2023-08-12T01:42:02;17.00;89.70
72814;DHT22;60945;48.516;-2.768;2023-08-12T01:44:28;17.10;89.30
72814;DHT22;60945;48.516;-2.768;2023-08-12T01:46:54;17.10;89.10
72814;DHT22;60945;48.516;-2.768;2023-08-12T01:49:20;17.20;88.40
72814;DHT22;60945;48.516;-2.768;2023-08-12T01:51:46;17.20;88.30
72814;DHT22;60945;48.516;-2.768;2023-08-12T01:54:11;17.20;88.40
72814;DHT22;60945;48.516;-2.768;2023-08-12T01:56:37;17.30;88.50
72814;DHT22;60945;48.516;-2.768;2023-08-12T01:59:02;17.20;88.00
72814;DHT22;60945;48.516;-2.768;2023-08-12T02:01:28;17.20;87.90
72814;DHT22;60945;48.516;-2.768;2023-08-12T02:03:54;17.10;87.90
72814;DHT22;60945;48.516;-2.768;2023-08-12T02:06:19;17.10;87.60
72814;DHT22;60945;48.516;-2.768;2023-08-12T02:08:45;17.00;88.00
72814;DHT22;60945;48.516;-2.768;2023-08-12T02:11:11;17.00;88.20
72814;DHT22;60945;48.516;-2.768;2023-08-12T02:13:36;17.00;87.80
72814;DHT22;60945;48.516;-2.768;2023-08-12T02:16:02;16.90;87.90
72814;DHT22;60945;48.516;-2.768;2023-08-12T02:18:28;16.80;88.20
72814;DHT22;60945;48.516;-2.768;2023-08-12T02:20:53;16.70;88.70
72814;DHT22;60945;48.516;-2.768;2023-08-12T02:23:19;16.70;88.80
72814;DHT22;60945;48.516;-2.768;2023-08-12T02:25:44;16.60;88.80
72814;DHT22;60945;48.516;-2.768;2023-08-12T02:28:10;16.60;89.10
72814;DHT22;60945;48.516;-2.768;2023-08-12T02:30:36;16.50;89.30
72814;DHT22;60945;48.516;-2.768;2023-08-12T02:33:01;16.40;89.80
72814;DHT22;60945;48.516;-2.768;2023-08-12T02:35:27;16.40;89.90
72814;DHT22;60945;48.516;-2.768;2023-08-12T02:37:53;16.40;90.10
72814;DHT22;60945;48.516;-2.768;2023-08-12T02:40:18;16.40;90.20
72814;DHT22;60945;48.516;-2.768;2023-08-12T02:42:44;16.40;90.30
72814;DHT22;60945;48.516;-2.768;2023-08-12T02:45:10;16.40;90.10
72814;DHT22;60945;48.516;-2.768;2023-08-12T02:47:35;16.40;90.10
72814;DHT22;60945;48.516;-2.768;2023-08-12T02:50:01;16.30;89.90
72814;DHT22;60945;48.516;-2.768;2023-08-12T02:52:27;16.30;90.20
72814;DHT22;60945;48.516;-2.768;2023-08-12T02:54:53;16.20;90.30
72814;DHT22;60945;48.516;-2.768;2023-08-12T02:57:20;16.20;90.60
72814;DHT22;60945;48.516;-2.768;2023-08-12T02:59:46;16.10;90.90
72814;DHT22;60945;48.516;-2.768;2023-08-12T03:02:11;16.10;90.70
72814;DHT22;60945;48.516;-2.768;2023-08-12T03:04:37;16.10;90.70
72814;DHT22;60945;48.516;-2.768;2023-08-12T03:07:02;16.20;90.70
72814;DHT22;60945;48.516;-2.768;2023-08-12T03:09:28;16.10;90.60
72814;DHT22;60945;48.516;-2.768;2023-08-12T03:11:54;16.10;90.80
72814;DHT22;60945;48.516;-2.768;2023-08-12T03:14:19;16.00;90.90
72814;DHT22;60945;48.516;-2.768;2023-08-12T03:16:45;16.10;90.90
72814;DHT22;60945;48.516;-2.768;2023-08-12T03:19:10;16.10;90.80
72814;DHT22;60945;48.516;-2.768;2023-08-12T03:21:36;16.00;90.70
72814;DHT22;60945;48.516;-2.768;2023-08-12T03:24:02;16.00;90.70
72814;DHT22;60945;48.516;-2.768;2023-08-12T03:26:27;15.90;90.70
72814;DHT22;60945;48.516;-2.768;2023-08-12T03:28:53;15.90;90.80
72814;DHT22;60945;48.516;-2.768;2023-08-12T03:31:19;15.90;90.90
72814;DHT22;60945;48.516;-2.768;2023-08-12T03:33:44;15.90;90.90
72814;DHT22;60945;48.516;-2.768;2023-08-12T03:36:10;15.80;91.30
72814;DHT22;60945;48.516;-2.768;2023-08-12T03:38:35;15.70;91.30
72814;DHT22;60945;48.516;-2.768;2023-08-12T03:41:02;15.70;91.20
72814;DHT22;60945;48.516;-2.768;2023-08-12T03:43:28;15.70;91.40
72814;DHT22;60945;48.516;-2.768;2023-08-12T03:45:54;15.70;91.50
72814;DHT22;60945;48.516;-2.768;2023-08-12T03:48:19;15.60;91.50
72814;DHT22;60945;48.516;-2.768;2023-08-12T03:50:45;15.60;91.70
72814;DHT22;60945;48.516;-2.768;2023-08-12T03:53:12;15.60;91.90
72814;DHT22;60945;48.516;-2.768;2023-08-12T03:55:38;15.60;91.80
72814;DHT22;60945;48.516;-2.768;2023-08-12T03:58:04;15.60;91.70
72814;DHT22;60945;48.516;-2.768;2023-08-12T04:00:29;15.60;91.50
72814;DHT22;60945;48.516;-2.768;2023-08-12T04:02:55;15.60;91.70
72814;DHT22;60945;48.516;-2.768;2023-08-12T04:05:21;15.50;91.70
72814;DHT22;60945;48.516;-2.768;2023-08-12T04:07:46;15.60;91.70
72814;DHT22;60945;48.516;-2.768;2023-08-12T04:10:12;15.50;91.60
72814;DHT22;60945;48.516;-2.768;2023-08-12T04:12:37;15.50;91.30
72814;DHT22;60945;48.516;-2.768;2023-08-12T04:15:03;15.40;91.50
72814;DHT22;60945;48.516;-2.768;2023-08-12T04:17:30;15.40;91.40
72814;DHT22;60945;48.516;-2.768;2023-08-12T04:19:55;15.40;91.60
72814;DHT22;60945;48.516;-2.768;2023-08-12T04:22:21;15.40;91.50
72814;DHT22;60945;48.516;-2.768;2023-08-12T04:24:47;15.40;91.60
72814;DHT22;60945;48.516;-2.768;2023-08-12T04:27:12;15.40;91.80
72814;DHT22;60945;48.516;-2.768;2023-08-12T04:29:38;15.40;91.90
72814;DHT22;60945;48.516;-2.768;2023-08-12T04:32:04;15.40;91.70
72814;DHT22;60945;48.516;-2.768;2023-08-12T04:34:29;15.30;91.80
72814;DHT22;60945;48.516;-2.768;2023-08-12T04:36:55;15.40;91.90
72814;DHT22;60945;48.516;-2.768;2023-08-12T04:39:21;15.30;91.90
72814;DHT22;60945;48.516;-2.768;2023-08-12T04:41:47;15.30;91.80
72814;DHT22;60945;48.516;-2.768;2023-08-12T04:44:13;15.30;91.70
72814;DHT22;60945;48.516;-2.768;2023-08-12T04:46:39;15.40;91.80
72814;DHT22;60945;48.516;-2.768;2023-08-12T04:49:04;15.40;91.80
72814;DHT22;60945;48.516;-2.768;2023-08-12T04:51:30;15.30;91.70
72814;DHT22;60945;48.516;-2.768;2023-08-12T04:53:56;15.30;91.60
72814;DHT22;60945;48.516;-2.768;2023-08-12T04:56:23;15.30;91.60
72814;DHT22;60945;48.516;-2.768;2023-08-12T04:58:52;15.30;91.70
72814;DHT22;60945;48.516;-2.768;2023-08-12T05:01:18;15.30;91.80
72814;DHT22;60945;48.516;-2.768;2023-08-12T05:03:44;15.20;91.70
72814;DHT22;60945;48.516;-2.768;2023-08-12T05:06:09;15.30;92.00
72814;DHT22;60945;48.516;-2.768;2023-08-12T05:08:35;15.30;91.80
72814;DHT22;60945;48.516;-2.768;2023-08-12T05:11:01;15.30;91.80
72814;DHT22;60945;48.516;-2.768;2023-08-12T05:13:27;15.30;91.80
72814;DHT22;60945;48.516;-2.768;2023-08-12T05:15:53;15.40;92.00
72814;DHT22;60945;48.516;-2.768;2023-08-12T05:18:21;15.40;91.80
72814;DHT22;60945;48.516;-2.768;2023-08-12T05:20:48;15.40;91.80
72814;DHT22;60945;48.516;-2.768;2023-08-12T05:23:14;15.40;91.80
72814;DHT22;60945;48.516;-2.768;2023-08-12T05:25:40;15.50;91.50
72814;DHT22;60945;48.516;-2.768;2023-08-12T05:28:06;15.50;91.50
72814;DHT22;60945;48.516;-2.768;2023-08-12T05:30:33;15.50;91.60
72814;DHT22;60945;48.516;-2.768;2023-08-12T05:32:58;15.60;91.30
72814;DHT22;60945;48.516;-2.768;2023-08-12T05:35:24;15.60;91.00
72814;DHT22;60945;48.516;-2.768;2023-08-12T05:37:50;15.60;90.90
72814;DHT22;60945;48.516;-2.768;2023-08-12T05:40:16;15.60;90.80
72814;DHT22;60945;48.516;-2.768;2023-08-12T05:42:41;15.70;90.70
72814;DHT22;60945;48.516;-2.768;2023-08-12T05:45:07;15.70;90.50
72814;DHT22;60945;48.516;-2.768;2023-08-12T05:47:33;15.70;90.30
72814;DHT22;60945;48.516;-2.768;2023-08-12T05:49:59;15.80;89.80
72814;DHT22;60945;48.516;-2.768;2023-08-12T05:52:24;15.80;89.40
72814;DHT22;60945;48.516;-2.768;2023-08-12T05:54:50;15.80;89.40
72814;DHT22;60945;48.516;-2.768;2023-08-12T05:57:16;15.90;89.30
72814;DHT22;60945;48.516;-2.768;2023-08-12T05:59:41;15.90;88.90
72814;DHT22;60945;48.516;-2.768;2023-08-12T06:02:07;15.90;88.50
72814;DHT22;60945;48.516;-2.768;2023-08-12T06:04:33;15.90;88.70
72814;DHT22;60945;48.516;-2.768;2023-08-12T06:06:58;16.00;88.50
72814;DHT22;60945;48.516;-2.768;2023-08-12T06:09:24;16.10;88.00
72814;DHT22;60945;48.516;-2.768;2023-08-12T06:11:50;16.10;88.10
72814;DHT22;60945;48.516;-2.768;2023-08-12T06:14:15;16.10;88.20
72814;DHT22;60945;48.516;-2.768;2023-08-12T06:16:41;16.20;87.90
72814;DHT22;60945;48.516;-2.768;2023-08-12T06:19:06;16.30;87.60
72814;DHT22;60945;48.516;-2.768;2023-08-12T06:21:32;16.40;87.20
72814;DHT22;60945;48.516;-2.768;2023-08-12T06:23:58;16.40;87.10
72814;DHT22;60945;48.516;-2.768;2023-08-12T06:26:23;16.30;87.10
72814;DHT22;60945;48.516;-2.768;2023-08-12T06:28:49;16.40;87.00
72814;DHT22;60945;48.516;-2.768;2023-08-12T06:31:15;16.40;86.60
72814;DHT22;60945;48.516;-2.768;2023-08-12T06:33:41;16.40;87.00
72814;DHT22;60945;48.516;-2.768;2023-08-12T06:36:07;16.50;86.70
72814;DHT22;60945;48.516;-2.768;2023-08-12T06:38:32;16.50;86.50
72814;DHT22;60945;48.516;-2.768;2023-08-12T06:40:58;16.50;86.50
72814;DHT22;60945;48.516;-2.768;2023-08-12T06:43:23;16.60;86.70
72814;DHT22;60945;48.516;-2.768;2023-08-12T06:45:49;16.70;86.20
72814;DHT22;60945;48.516;-2.768;2023-08-12T06:48:15;16.80;85.70
72814;DHT22;60945;48.516;-2.768;2023-08-12T06:50:40;16.90;85.10
72814;DHT22;60945;48.516;-2.768;2023-08-12T06:53:06;17.00;85.10
72814;DHT22;60945;48.516;-2.768;2023-08-12T06:55:32;17.10;84.10
72814;DHT22;60945;48.516;-2.768;2023-08-12T06:58:00;17.20;84.10
72814;DHT22;60945;48.516;-2.768;2023-08-12T07:00:26;17.20;83.70
72814;DHT22;60945;48.516;-2.768;2023-08-12T07:02:52;17.30;83.40
72814;DHT22;60945;48.516;-2.768;2023-08-12T07:05:17;17.30;83.30
72814;DHT22;60945;48.516;-2.768;2023-08-12T07:07:43;17.50;82.90
72814;DHT22;60945;48.516;-2.768;2023-08-12T07:10:09;17.50;82.70
72814;DHT22;60945;48.516;-2.768;2023-08-12T07:12:35;17.50;82.60
72814;DHT22;60945;48.516;-2.768;2023-08-12T07:15:01;17.70;81.90
72814;DHT22;60945;48.516;-2.768;2023-08-12T07:17:26;17.80;81.40
72814;DHT22;60945;48.516;-2.768;2023-08-12T07:19:52;17.80;81.20
72814;DHT22;60945;48.516;-2.768;2023-08-12T07:22:18;17.90;80.70
72814;DHT22;60945;48.516;-2.768;2023-08-12T07:24:45;17.90;80.50
72814;DHT22;60945;48.516;-2.768;2023-08-12T07:27:11;18.00;80.40
72814;DHT22;60945;48.516;-2.768;2023-08-12T07:29:37;18.10;79.30
72814;DHT22;60945;48.516;-2.768;2023-08-12T07:32:02;18.20;78.90
72814;DHT22;60945;48.516;-2.768;2023-08-12T07:34:28;18.40;78.00
72814;DHT22;60945;48.516;-2.768;2023-08-12T07:36:54;18.50;77.90
72814;DHT22;60945;48.516;-2.768;2023-08-12T07:39:20;18.70;77.20
72814;DHT22;60945;48.516;-2.768;2023-08-12T07:41:45;18.90;74.90
72814;DHT22;60945;48.516;-2.768;2023-08-12T07:44:11;19.00;74.80
72814;DHT22;60945;48.516;-2.768;2023-08-12T07:46:36;19.20;74.70
72814;DHT22;60945;48.516;-2.768;2023-08-12T07:49:02;19.40;72.50
72814;DHT22;60945;48.516;-2.768;2023-08-12T07:51:28;19.30;73.10
72814;DHT22;60945;48.516;-2.768;2023-08-12T07:53:53;19.60;72.00
72814;DHT22;60945;48.516;-2.768;2023-08-12T07:56:19;19.60;71.50
72814;DHT22;60945;48.516;-2.768;2023-08-12T07:58:45;20.00;71.10
72814;DHT22;60945;48.516;-2.768;2023-08-12T08:01:11;20.00;69.30
72814;DHT22;60945;48.516;-2.768;2023-08-12T08:03:37;20.20;69.00
72814;DHT22;60945;48.516;-2.768;2023-08-12T08:06:02;20.30;68.80
72814;DHT22;60945;48.516;-2.768;2023-08-12T08:08:28;20.30;68.20
72814;DHT22;60945;48.516;-2.768;2023-08-12T08:10:53;20.30;68.80
72814;DHT22;60945;48.516;-2.768;2023-08-12T08:13:19;20.20;67.60
72814;DHT22;60945;48.516;-2.768;2023-08-12T08:15:45;19.90;68.60
72814;DHT22;60945;48.516;-2.768;2023-08-12T08:18:11;20.00;69.10
72814;DHT22;60945;48.516;-2.768;2023-08-12T08:20:37;20.60;67.20
72814;DHT22;60945;48.516;-2.768;2023-08-12T08:23:03;20.70;66.10
72814;DHT22;60945;48.516;-2.768;2023-08-12T08:25:28;20.90;66.10
72814;DHT22;60945;48.516;-2.768;2023-08-12T08:27:54;21.50;63.20
72814;DHT22;60945;48.516;-2.768;2023-08-12T08:30:19;22.00;60.80
72814;DHT22;60945;48.516;-2.768;2023-08-12T08:32:45;21.50;62.40
72814;DHT22;60945;48.516;-2.768;2023-08-12T08:35:12;22.40;59.60
72814;DHT22;60945;48.516;-2.768;2023-08-12T08:37:37;22.10;60.90
72814;DHT22;60945;48.516;-2.768;2023-08-12T08:40:04;22.60;59.90
72814;DHT22;60945;48.516;-2.768;2023-08-12T08:42:30;23.30;57.40
72814;DHT22;60945;48.516;-2.768;2023-08-12T08:44:58;23.70;56.90
72814;DHT22;60945;48.516;-2.768;2023-08-12T08:47:27;23.30;56.20
72814;DHT22;60945;48.516;-2.768;2023-08-12T08:49:55;22.50;58.90
72814;DHT22;60945;48.516;-2.768;2023-08-12T08:52:23;22.60;58.20
72814;DHT22;60945;48.516;-2.768;2023-08-12T08:54:49;22.50;59.20
72814;DHT22;60945;48.516;-2.768;2023-08-12T08:57:14;23.00;58.20
72814;DHT22;60945;48.516;-2.768;2023-08-12T08:59:40;22.80;58.90
72814;DHT22;60945;48.516;-2.768;2023-08-12T09:02:16;23.00;57.70
72814;DHT22;60945;48.516;-2.768;2023-08-12T09:04:46;23.50;57.40
72814;DHT22;60945;48.516;-2.768;2023-08-12T09:07:13;24.00;54.90
72814;DHT22;60945;48.516;-2.768;2023-08-12T09:09:45;23.60;55.80
72814;DHT22;60945;48.516;-2.768;2023-08-12T09:12:13;23.90;56.40
72814;DHT22;60945;48.516;-2.768;2023-08-12T09:14:39;25.20;51.20
72814;DHT22;60945;48.516;-2.768;2023-08-12T09:17:06;25.20;50.60
72814;DHT22;60945;48.516;-2.768;2023-08-12T09:19:32;23.90;54.00
72814;DHT22;60945;48.516;-2.768;2023-08-12T09:21:58;23.70;55.00
72814;DHT22;60945;48.516;-2.768;2023-08-12T09:24:27;23.90;54.20
72814;DHT22;60945;48.516;-2.768;2023-08-12T09:26:54;23.80;54.70
72814;DHT22;60945;48.516;-2.768;2023-08-12T09:29:29;23.70;54.70
72814;DHT22;60945;48.516;-2.768;2023-08-12T09:31:55;23.90;53.90
72814;DHT22;60945;48.516;-2.768;2023-08-12T09:34:30;24.70;52.50
72814;DHT22;60945;48.516;-2.768;2023-08-12T09:36:55;24.80;51.60
72814;DHT22;60945;48.516;-2.768;2023-08-12T09:39:21;24.80;51.40
72814;DHT22;60945;48.516;-2.768;2023-08-12T09:41:47;24.20;53.00
72814;DHT22;60945;48.516;-2.768;2023-08-12T09:44:13;23.80;54.00
72814;DHT22;60945;48.516;-2.768;2023-08-12T09:46:39;23.90;54.40
72814;DHT22;60945;48.516;-2.768;2023-08-12T09:49:04;23.50;55.20
72814;DHT22;60945;48.516;-2.768;2023-08-12T09:51:35;23.40;55.10
72814;DHT22;60945;48.516;-2.768;2023-08-12T09:54:02;23.80;53.50
72814;DHT22;60945;48.516;-2.768;2023-08-12T09:56:31;24.20;52.50
72814;DHT22;60945;48.516;-2.768;2023-08-12T09:58:58;24.60;51.60
72814;DHT22;60945;48.516;-2.768;2023-08-12T10:01:24;24.70;49.90
72814;DHT22;60945;48.516;-2.768;2023-08-12T10:03:51;24.70;50.30
72814;DHT22;60945;48.516;-2.768;2023-08-12T10:06:19;24.70;50.40
72814;DHT22;60945;48.516;-2.768;2023-08-12T10:08:46;24.80;49.90
72814;DHT22;60945;48.516;-2.768;2023-08-12T10:11:12;24.90;49.50
72814;DHT22;60945;48.516;-2.768;2023-08-12T10:13:40;24.70;49.90
72814;DHT22;60945;48.516;-2.768;2023-08-12T10:16:06;25.00;50.80
72814;DHT22;60945;48.516;-2.768;2023-08-12T10:18:32;25.60;48.90
72814;DHT22;60945;48.516;-2.768;2023-08-12T10:20:59;25.40;49.40
72814;DHT22;60945;48.516;-2.768;2023-08-12T10:23:26;23.30;54.00
72814;DHT22;60945;48.516;-2.768;2023-08-12T10:25:54;23.40;55.10
72814;DHT22;60945;48.516;-2.768;2023-08-12T10:28:20;23.20;55.40
72814;DHT22;60945;48.516;-2.768;2023-08-12T10:30:46;23.10;56.10
72814;DHT22;60945;48.516;-2.768;2023-08-12T10:33:14;23.50;54.10
72814;DHT22;60945;48.516;-2.768;2023-08-12T10:35:50;24.60;52.50
72814;DHT22;60945;48.516;-2.768;2023-08-12T10:38:20;24.00;52.10
72814;DHT22;60945;48.516;-2.768;2023-08-12T10:40:47;24.20;51.70
72814;DHT22;60945;48.516;-2.768;2023-08-12T10:43:15;24.80;50.90
72814;DHT22;60945;48.516;-2.768;2023-08-12T10:45:47;25.40;50.20
72814;DHT22;60945;48.516;-2.768;2023-08-12T10:48:22;26.20;46.90
72814;DHT22;60945;48.516;-2.768;2023-08-12T10:50:54;26.60;45.80
72814;DHT22;60945;48.516;-2.768;2023-08-12T10:55:49;26.00;46.50
72814;DHT22;60945;48.516;-2.768;2023-08-12T10:58:26;26.60;45.70
72814;DHT22;60945;48.516;-2.768;2023-08-12T11:00:53;27.10;44.70
72814;DHT22;60945;48.516;-2.768;2023-08-12T11:03:19;26.70;45.10
72814;DHT22;60945;48.516;-2.768;2023-08-12T11:05:46;26.30;45.70
72814;DHT22;60945;48.516;-2.768;2023-08-12T11:08:13;25.80;47.10
72814;DHT22;60945;48.516;-2.768;2023-08-12T11:10:39;24.70;49.50
72814;DHT22;60945;48.516;-2.768;2023-08-12T11:13:05;25.50;48.20
72814;DHT22;60945;48.516;-2.768;2023-08-12T11:15:36;26.70;45.90
72814;DHT22;60945;48.516;-2.768;2023-08-12T11:18:10;28.80;43.10
72814;DHT22;60945;48.516;-2.768;2023-08-12T11:20:38;29.10;41.00
72814;DHT22;60945;48.516;-2.768;2023-08-12T11:23:05;29.90;40.90
72814;DHT22;60945;48.516;-2.768;2023-08-12T11:25:32;30.30;39.30
72814;DHT22;60945;48.516;-2.768;2023-08-12T11:27:58;31.80;36.10
72814;DHT22;60945;48.516;-2.768;2023-08-12T11:30:24;32.40;34.80
72814;DHT22;60945;48.516;-2.768;2023-08-12T11:32:52;31.00;38.30
72814;DHT22;60945;48.516;-2.768;2023-08-12T11:35:20;29.10;40.40
72814;DHT22;60945;48.516;-2.768;2023-08-12T11:37:47;27.80;42.80
72814;DHT22;60945;48.516;-2.768;2023-08-12T11:40:15;28.30;42.20
72814;DHT22;60945;48.516;-2.768;2023-08-12T11:42:49;28.60;41.50
72814;DHT22;60945;48.516;-2.768;2023-08-12T11:45:23;28.40;41.30
72814;DHT22;60945;48.516;-2.768;2023-08-12T11:47:49;26.10;46.10
72814;DHT22;60945;48.516;-2.768;2023-08-12T11:50:27;25.20;48.10
72814;DHT22;60945;48.516;-2.768;2023-08-12T11:52:55;25.90;47.50
72814;DHT22;60945;48.516;-2.768;2023-08-12T11:55:21;26.60;45.90
72814;DHT22;60945;48.516;-2.768;2023-08-12T11:57:47;27.40;43.30
72814;DHT22;60945;48.516;-2.768;2023-08-12T12:00:14;28.00;42.20
72814;DHT22;60945;48.516;-2.768;2023-08-12T12:05:12;28.30;41.40
72814;DHT22;60945;48.516;-2.768;2023-08-12T12:07:39;27.70;42.30
72814;DHT22;60945;48.516;-2.768;2023-08-12T12:10:05;27.80;42.70
72814;DHT22;60945;48.516;-2.768;2023-08-12T12:12:33;28.40;41.10
72814;DHT22;60945;48.516;-2.768;2023-08-12T12:15:00;28.60;40.20
72814;DHT22;60945;48.516;-2.768;2023-08-12T12:17:26;28.30;41.30
72814;DHT22;60945;48.516;-2.768;2023-08-12T12:19:55;27.80;43.70
72814;DHT22;60945;48.516;-2.768;2023-08-12T12:22:29;27.40;43.10
72814;DHT22;60945;48.516;-2.768;2023-08-12T12:24:58;26.90;44.90
72814;DHT22;60945;48.516;-2.768;2023-08-12T12:27:24;26.70;46.20
72814;DHT22;60945;48.516;-2.768;2023-08-12T12:29:50;27.20;44.50
72814;DHT22;60945;48.516;-2.768;2023-08-12T12:32:18;27.90;43.30
72814;DHT22;60945;48.516;-2.768;2023-08-12T12:34:44;27.20;44.00
72814;DHT22;60945;48.516;-2.768;2023-08-12T12:37:10;28.00;43.10
72814;DHT22;60945;48.516;-2.768;2023-08-12T12:39:36;27.60;44.50
72814;DHT22;60945;48.516;-2.768;2023-08-12T12:42:02;29.00;42.50
72814;DHT22;60945;48.516;-2.768;2023-08-12T12:44:27;36.20;32.40
72814;DHT22;60945;48.516;-2.768;2023-08-12T12:46:53;35.00;32.60
72814;DHT22;60945;48.516;-2.768;2023-08-12T12:49:20;32.10;36.10
72814;DHT22;60945;48.516;-2.768;2023-08-12T12:51:45;31.20;37.60
72814;DHT22;60945;48.516;-2.768;2023-08-12T12:54:11;30.00;39.70
72814;DHT22;60945;48.516;-2.768;2023-08-12T12:56:37;28.20;42.70
72814;DHT22;60945;48.516;-2.768;2023-08-12T12:59:02;27.10;45.60
72814;DHT22;60945;48.516;-2.768;2023-08-12T13:01:28;26.20;47.10
72814;DHT22;60945;48.516;-2.768;2023-08-12T13:03:54;25.60;50.80
72814;DHT22;60945;48.516;-2.768;2023-08-12T13:06:19;25.50;51.10
72814;DHT22;60945;48.516;-2.768;2023-08-12T13:08:45;25.20;51.30
72814;DHT22;60945;48.516;-2.768;2023-08-12T13:11:10;24.60;53.50
72814;DHT22;60945;48.516;-2.768;2023-08-12T13:13:36;25.30;52.60
72814;DHT22;60945;48.516;-2.768;2023-08-12T13:16:02;27.20;48.10
72814;DHT22;60945;48.516;-2.768;2023-08-12T13:18:27;27.60;46.40
72814;DHT22;60945;48.516;-2.768;2023-08-12T13:20:53;27.60;45.30
72814;DHT22;60945;48.516;-2.768;2023-08-12T13:23:19;27.50;45.30
72814;DHT22;60945;48.516;-2.768;2023-08-12T13:25:44;28.60;43.10
72814;DHT22;60945;48.516;-2.768;2023-08-12T13:28:10;30.60;39.80
72814;DHT22;60945;48.516;-2.768;2023-08-12T13:30:36;31.30;38.00
72814;DHT22;60945;48.516;-2.768;2023-08-12T13:33:03;30.00;39.20
72814;DHT22;60945;48.516;-2.768;2023-08-12T13:35:29;28.30;41.70
72814;DHT22;60945;48.516;-2.768;2023-08-12T13:37:54;26.90;45.20
72814;DHT22;60945;48.516;-2.768;2023-08-12T13:40:20;25.40;48.60
72814;DHT22;60945;48.516;-2.768;2023-08-12T13:42:46;25.30;50.10
72814;DHT22;60945;48.516;-2.768;2023-08-12T13:45:12;25.90;48.00
72814;DHT22;60945;48.516;-2.768;2023-08-12T13:47:38;25.00;50.00
72814;DHT22;60945;48.516;-2.768;2023-08-12T13:50:04;25.30;49.80
72814;DHT22;60945;48.516;-2.768;2023-08-12T13:52:31;26.30;48.20
72814;DHT22;60945;48.516;-2.768;2023-08-12T13:54:56;25.70;49.30
72814;DHT22;60945;48.516;-2.768;2023-08-12T13:57:22;25.40;50.70
72814;DHT22;60945;48.516;-2.768;2023-08-12T13:59:47;25.20;50.40
72814;DHT22;60945;48.516;-2.768;2023-08-12T14:02:14;24.80;51.50
72814;DHT22;60945;48.516;-2.768;2023-08-12T14:04:40;24.40;52.90
72814;DHT22;60945;48.516;-2.768;2023-08-12T14:07:05;25.00;51.10
72814;DHT22;60945;48.516;-2.768;2023-08-12T14:09:31;24.60;53.00
72814;DHT22;60945;48.516;-2.768;2023-08-12T14:11:57;24.60;52.70
72814;DHT22;60945;48.516;-2.768;2023-08-12T14:14:24;23.80;55.40
72814;DHT22;60945;48.516;-2.768;2023-08-12T14:16:53;24.20;54.50
72814;DHT22;60945;48.516;-2.768;2023-08-12T14:19:19;24.40;53.10
72814;DHT22;60945;48.516;-2.768;2023-08-12T14:21:44;24.20;53.90
72814;DHT22;60945;48.516;-2.768;2023-08-12T14:24:10;24.30;53.20
72814;DHT22;60945;48.516;-2.768;2023-08-12T14:26:36;25.20;51.50
72814;DHT22;60945;48.516;-2.768;2023-08-12T14:29:02;26.40;48.60
72814;DHT22;60945;48.516;-2.768;2023-08-12T14:31:28;27.60;45.80
72814;DHT22;60945;48.516;-2.768;2023-08-12T14:33:53;26.30;47.00
72814;DHT22;60945;48.516;-2.768;2023-08-12T14:36:19;25.80;49.20
72814;DHT22;60945;48.516;-2.768;2023-08-12T14:38:45;25.80;49.10
72814;DHT22;60945;48.516;-2.768;2023-08-12T14:41:10;25.20;50.70
72814;DHT22;60945;48.516;-2.768;2023-08-12T14:43:36;25.10;52.50
72814;DHT22;60945;48.516;-2.768;2023-08-12T14:46:02;25.90;50.50
72814;DHT22;60945;48.516;-2.768;2023-08-12T14:48:28;28.50;44.50
72814;DHT22;60945;48.516;-2.768;2023-08-12T14:50:55;29.80;42.00
72814;DHT22;60945;48.516;-2.768;2023-08-12T14:53:20;28.20;44.20
72814;DHT22;60945;48.516;-2.768;2023-08-12T14:55:46;27.80;45.40
72814;DHT22;60945;48.516;-2.768;2023-08-12T14:58:12;27.40;45.70
72814;DHT22;60945;48.516;-2.768;2023-08-12T15:00:37;27.00;46.60
72814;DHT22;60945;48.516;-2.768;2023-08-12T15:03:03;26.00;49.10
72814;DHT22;60945;48.516;-2.768;2023-08-12T15:05:29;25.30;51.20
72814;DHT22;60945;48.516;-2.768;2023-08-12T15:07:55;25.20;51.80
72814;DHT22;60945;48.516;-2.768;2023-08-12T15:10:20;24.40;53.10
72814;DHT22;60945;48.516;-2.768;2023-08-12T15:12:46;23.70;55.90
72814;DHT22;60945;48.516;-2.768;2023-08-12T15:15:12;23.20;57.20
72814;DHT22;60945;48.516;-2.768;2023-08-12T15:17:37;23.10;60.30